Mandarin Grace — 9V8352 — position and weather

sailwx.info

Track history (hours):
 
Tides and Currents Weather Stations Pressure Air Temp Water Temp Dewpoint Dewpoint Depression Visibility Wind Speed Wind Dir Waves Ship Positions

Mandarin Grace

Last reported at 2014-Oct-25 06:31 UTC. Time now 2014-Oct-25 07:08 UTC.
Position N 38°42' W 009°07'.

Length 190 m; draft 6.6 m.

Type: Cargo ship. MMSI: 563862000.

Date/timePositionNaut miles runAvg speedWind from/ knotsBaromVisibWave heightAir tempDewpointWater temp
2014-Oct-25 06:31N 38°42' W 009°07'0 0.0
2014-Oct-25 05:31N 38°42' W 009°07'0 0.0
2014-Oct-25 04:31N 38°42' W 009°07'0 0.1
2014-Oct-25 03:31N 38°42' W 009°07'0 0.1
2014-Oct-25 02:31N 38°42' W 009°07'0 0.0
2014-Oct-25 01:31N 38°42' W 009°07'0 0.0
2014-Oct-25 00:31N 38°42' W 009°07'0 0.0
2014-Oct-24 23:31N 38°42' W 009°07'0 0.1
2014-Oct-24 22:31N 38°42' W 009°07'0 0.1
2014-Oct-24 21:31N 38°42' W 009°07'0 0.1
2014-Oct-24 20:31N 38°42' W 009°07'0 0.0
2014-Oct-24 19:31N 38°42' W 009°07'0 0.0
2014-Oct-24 18:31N 38°42' W 009°07'0 0.0
2014-Oct-24 17:31N 38°42' W 009°07'3 2.9
2014-Oct-24 16:34N 38°41' W 009°11'1110.9
2014-Oct-24 15:34N 38°37' W 009°23'8 7.6
2014-Oct-24 14:33N 38°29' W 009°24'1313.1
2014-Oct-24 13:33N 38°16' W 009°24'1313.1
2014-Oct-24 12:33N 38°03' W 009°23'1212.4
2014-Oct-24 11:33N 37°51' W 009°23'1313.2
2014-Oct-24 10:33N 37°38' W 009°22'1313.1
2014-Oct-24 09:33N 37°24' W 009°22'1312.8
2014-Oct-24 08:33N 37°12' W 009°21'1312.7
2014-Oct-24 07:33N 36°59' W 009°21'1211.9
2014-Oct-24 06:33N 36°48' W 009°14'1212.4
2014-Oct-24 05:33N 36°42' W 009°01'1312.9
2014-Oct-24 04:33N 36°37' W 008°46'1313.1
2014-Oct-24 03:33N 36°33' W 008°31'1313.3
2014-Oct-24 02:34N 36°28' W 008°15'1513.2
2014-Oct-24 01:26N 36°24' W 007°58'1213.3
2014-Oct-24 00:34N 36°20' W 007°44'2713.6
2014-Oct-23 22:33N 36°12' W 007°11'1413.4
2014-Oct-23 21:32N 36°08' W 006°55'6312.7
2014-Oct-23 16:32N 35°58' W 005°38'1111.2
2014-Oct-23 15:33N 36°01' W 005°25'1312.5
2014-Oct-23 14:33N 36°03' W 005°10'52813.1
2014-Oct-21 22:23N 37°24' E 005°41'11711.9
2014-Oct-21 12:33N 37°35' E 008°08'1312.9
2014-Oct-21 11:32N 37°36' E 008°25'1412.9
2014-Oct-21 10:25N 37°37' E 008°43'1112.6
2014-Oct-21 09:33N 37°38' E 008°57'1212.3
2014-Oct-21 08:33N 37°38' E 009°12'1212.2
2014-Oct-21 07:32N 37°38' E 009°28'1312.1
2014-Oct-21 06:28N 37°38' E 009°44'1112.3
2014-Oct-21 05:33N 37°39' E 009°58'1212.0
2014-Oct-21 04:33N 37°39' E 010°13'1211.7
2014-Oct-21 03:33N 37°39' E 010°28'15213.2
2014-Oct-20 16:04N 36°46' E 013°26'913.2
2014-Oct-20 15:25N 36°43' E 013°36'1213.1
2014-Oct-20 14:32N 36°38' E 013°50'1313.1
2014-Oct-20 13:34N 36°33' E 014°04'1312.9
2014-Oct-20 12:33N 36°27' E 014°19'1312.8
2014-Oct-20 11:34N 36°27' E 014°34'  
Track history (hours):
 
Tides and Currents Weather Stations Pressure Air Temp Water Temp Dewpoint Dewpoint Depression Visibility Wind Speed Wind Dir Waves Ship Positions

Mandarin Grace

Last reported at 2014-Oct-25 06:31 UTC. Time now 2014-Oct-25 07:08 UTC.
Position N 38°42' W 009°07'.

Length 190 m; draft 6.6 m.

Type: Cargo ship. MMSI: 563862000.

Date/timePositionNaut miles runAvg speedWind from/ knotsBaromVisibWave heightAir tempDewpointWater temp
2014-Oct-25 06:31N 38°42' W 009°07'0 0.0
2014-Oct-25 05:31N 38°42' W 009°07'0 0.0
2014-Oct-25 04:31N 38°42' W 009°07'0 0.1
2014-Oct-25 03:31N 38°42' W 009°07'0 0.1
2014-Oct-25 02:31N 38°42' W 009°07'0 0.0
2014-Oct-25 01:31N 38°42' W 009°07'0 0.0
2014-Oct-25 00:31N 38°42' W 009°07'0 0.0
2014-Oct-24 23:31N 38°42' W 009°07'0 0.1
2014-Oct-24 22:31N 38°42' W 009°07'0 0.1
2014-Oct-24 21:31N 38°42' W 009°07'0 0.1
2014-Oct-24 20:31N 38°42' W 009°07'0 0.0
2014-Oct-24 19:31N 38°42' W 009°07'0 0.0
2014-Oct-24 18:31N 38°42' W 009°07'0 0.0
2014-Oct-24 17:31N 38°42' W 009°07'3 2.9
2014-Oct-24 16:34N 38°41' W 009°11'1110.9
2014-Oct-24 15:34N 38°37' W 009°23'8 7.6
2014-Oct-24 14:33N 38°29' W 009°24'1313.1
2014-Oct-24 13:33N 38°16' W 009°24'1313.1
2014-Oct-24 12:33N 38°03' W 009°23'1212.4
2014-Oct-24 11:33N 37°51' W 009°23'1313.2
2014-Oct-24 10:33N 37°38' W 009°22'1313.1
2014-Oct-24 09:33N 37°24' W 009°22'1312.8
2014-Oct-24 08:33N 37°12' W 009°21'1312.7
2014-Oct-24 07:33N 36°59' W 009°21'1211.9
2014-Oct-24 06:33N 36°48' W 009°14'1212.4
2014-Oct-24 05:33N 36°42' W 009°01'1312.9
2014-Oct-24 04:33N 36°37' W 008°46'1313.1
2014-Oct-24 03:33N 36°33' W 008°31'1313.3
2014-Oct-24 02:34N 36°28' W 008°15'1513.2
2014-Oct-24 01:26N 36°24' W 007°58'1213.3
2014-Oct-24 00:34N 36°20' W 007°44'2713.6
2014-Oct-23 22:33N 36°12' W 007°11'1413.4
2014-Oct-23 21:32N 36°08' W 006°55'6312.7
2014-Oct-23 16:32N 35°58' W 005°38'1111.2
2014-Oct-23 15:33N 36°01' W 005°25'1312.5
2014-Oct-23 14:33N 36°03' W 005°10'52813.1
2014-Oct-21 22:23N 37°24' E 005°41'11711.9
2014-Oct-21 12:33N 37°35' E 008°08'1312.9
2014-Oct-21 11:32N 37°36' E 008°25'1412.9
2014-Oct-21 10:25N 37°37' E 008°43'1112.6
2014-Oct-21 09:33N 37°38' E 008°57'1212.3
2014-Oct-21 08:33N 37°38' E 009°12'1212.2
2014-Oct-21 07:32N 37°38' E 009°28'1312.1
2014-Oct-21 06:28N 37°38' E 009°44'1112.3
2014-Oct-21 05:33N 37°39' E 009°58'1212.0
2014-Oct-21 04:33N 37°39' E 010°13'1211.7
2014-Oct-21 03:33N 37°39' E 010°28'15213.2
2014-Oct-20 16:04N 36°46' E 013°26'913.2
2014-Oct-20 15:25N 36°43' E 013°36'1213.1
2014-Oct-20 14:32N 36°38' E 013°50'1313.1
2014-Oct-20 13:34N 36°33' E 014°04'1312.9
2014-Oct-20 12:33N 36°27' E 014°19'1312.8
2014-Oct-20 11:34N 36°27' E 014°34'  

Dump ship's entire track history